Time;durP1;ratioP1;P1;durP2;ratioP2;P2;SDS_P1;SDS_P2;PMS_P1;PMS_P2;Temp;Humidity;BMP_temperature;BMP_pressure;BME280_temperature;BME280_humidity;BME280_pressure;Samples;Min_cycle;Max_cycle;Signal;HPM_P1;HPM_P2
2022/11/22 00:01:21;;;;;;;;;1.00;1.00;;;;;3.66;100.00;98597.66;6206466;22;45405;-91
2022/11/22 00:03:47;;;;;;;;;1.50;0.75;;;;;3.68;100.00;98571.50;6202368;22;45377;-92
2022/11/22 00:06:31;;;;;;;;;1.00;1.00;;;;;3.67;100.00;98570.63;6194331;22;45396;-91
2022/11/22 00:08:59;;;;;;;;;3.50;2.00;;;;;3.91;100.00;98615.38;6193692;22;47024;-93
2022/11/22 00:11:27;;;;;;;;;1.00;1.00;;;;;3.20;100.00;98518.63;6198308;22;45137;-93
2022/11/22 00:13:53;;;;;;;;;1.50;1.50;;;;;3.94;100.00;98644.06;6196751;22;45136;-92
2022/11/22 00:16:18;;;;;;;;;0.25;0.25;;;;;3.09;100.00;98486.66;6191513;22;45251;-91
2022/11/22 00:19:04;;;;;;;;;1.00;1.00;;;;;3.88;100.00;98620.69;6195299;22;45517;-92
2022/11/22 00:21:29;;;;;;;;;0.00;0.00;;;;;4.35;100.00;98707.56;6193025;22;45421;-91
2022/11/22 00:23:57;;;;;;;;;0.50;0.50;;;;;4.12;100.00;98661.06;6222153;22;45183;-93
2022/11/22 00:26:24;;;;;;;;;1.00;0.25;;;;;3.83;100.00;98614.72;6197307;22;45573;-93
2022/11/22 00:28:51;;;;;;;;;1.00;1.00;;;;;3.61;100.00;98565.53;6194918;22;46806;-92
2022/11/22 00:31:24;;;;;;;;;1.00;1.00;;;;;4.24;100.00;98678.22;6197831;22;45237;-93
2022/11/22 00:33:50;;;;;;;;;0.50;0.50;;;;;4.61;100.00;98768.88;6205809;22;45206;-93
2022/11/22 00:36:24;;;;;;;;;0.50;0.50;;;;;4.13;100.00;98661.91;6194826;22;45169;-92
2022/11/22 00:38:54;;;;;;;;;4.25;1.75;;;;;2.81;100.00;98470.78;6196235;22;47239;-92
2022/11/22 00:41:21;;;;;;;;;3.25;1.25;;;;;3.55;100.00;98568.28;6196776;22;45477;-93
2022/11/22 00:43:49;;;;;;;;;2.00;1.00;;;;;2.75;100.00;98432.63;6195245;22;45229;-93
2022/11/22 00:46:15;;;;;;;;;1.00;1.00;;;;;2.66;100.00;98438.88;6177594;22;45146;-92
2022/11/22 00:48:40;;;;;;;;;1.00;1.00;;;;;3.03;100.00;98495.47;6199190;22;48045;-93
2022/11/22 00:51:06;;;;;;;;;1.25;1.25;;;;;4.53;100.00;98740.28;6193381;22;46180;-92
2022/11/22 00:53:31;;;;;;;;;0.75;0.75;;;;;3.68;100.00;98600.25;6193060;22;45177;-93
2022/11/22 00:55:58;;;;;;;;;3.50;2.50;;;;;3.03;100.00;98490.25;6189447;22;45468;-92
2022/11/22 00:58:24;;;;;;;;;1.00;1.00;;;;;4.50;100.00;98761.28;6193854;22;47209;-92
2022/11/22 01:00:50;;;;;;;;;1.00;1.00;;;;;3.67;100.00;98624.66;6200147;22;44742;-91
2022/11/22 01:03:34;;;;;;;;;1.00;1.00;;;;;3.82;100.00;98647.81;6201396;22;44828;-92
2022/11/22 01:06:40;;;;;;;;;4.25;2.25;;;;;2.72;100.00;98484.88;6198986;22;45422;-92
2022/11/22 01:09:33;;;;;;;;;3.00;1.50;;;;;3.14;100.00;98543.97;6071351;23;48023;-90
2022/11/22 01:11:59;;;;;;;;;0.25;0.25;;;;;2.62;100.00;98472.91;6077695;23;45485;-92
2022/11/22 01:14:28;;;;;;;;;1.25;1.00;;;;;2.42;100.00;98421.16;6076567;23;45293;-91
2022/11/22 01:16:53;;;;;;;;;1.00;1.00;;;;;2.53;100.00;98442.66;6053020;23;45324;-91
2022/11/22 01:19:19;;;;;;;;;2.00;1.00;;;;;3.20;100.00;98549.06;6073811;23;47584;-92
2022/11/22 01:21:44;;;;;;;;;2.00;2.00;;;;;3.59;100.00;98623.97;6072935;23;45234;-92
2022/11/22 01:24:10;;;;;;;;;2.00;1.00;;;;;4.38;100.00;98765.06;6075691;23;44863;-92
2022/11/22 01:26:38;;;;;;;;;2.00;1.50;;;;;2.97;100.00;98519.09;6079593;23;45264;-92
2022/11/22 01:29:04;;;;;;;;;2.00;2.00;;;;;2.52;100.00;98440.94;6104900;23;47784;-92
2022/11/22 01:31:33;;;;;;;;;2.00;1.00;;;;;3.93;100.00;98686.75;6083521;23;45057;-93
2022/11/22 01:33:59;;;;;;;;;3.25;1.00;;;;;3.29;100.00;98563.69;6068794;23;44839;-91
2022/11/22 01:36:37;;;;;;;;;;;;;;;;;;;;;
2022/11/22 01:39:06;;;;;;;;;0.00;0.00;;;;;3.40;100.00;98574.72;5988433;23;73719;-92
2022/11/22 01:51:45;;;;;;;;;1.00;1.00;;;;;3.79;100.00;98636.56;6137365;23;45661;-91
2022/11/22 01:54:15;;;;;;;;;2.25;0.25;;;;;4.46;100.00;98736.09;6141961;23;45421;-92
2022/11/22 01:56:47;;;;;;;;;1.00;0.00;;;;;4.47;100.00;98739.59;6145617;23;44553;-91
2022/11/22 01:59:18;;;;;;;;;1.50;1.50;;;;;3.45;100.00;98580.72;6140425;23;44884;-90
2022/11/22 02:01:43;;;;;;;;;1.00;0.75;;;;;3.85;100.00;98631.19;6146586;23;47461;-91
2022/11/22 02:04:15;;;;;;;;;1.00;1.00;;;;;2.89;100.00;98471.44;6132594;23;45217;-92
2022/11/22 02:06:50;;;;;;;;;0.00;0.00;;;;;2.97;100.00;98466.91;6102207;23;45237;-91
2022/11/22 02:09:19;;;;;;;;;0.00;0.00;;;;;2.94;100.00;98477.41;6125865;23;45329;-91
2022/11/22 02:11:52;;;;;;;;;0.25;0.25;;;;;3.49;100.00;98560.59;6102917;23;46678;-92
2022/11/22 02:14:22;;;;;;;;;0.25;0.25;;;;;3.52;100.00;98545.75;6108288;23;45182;-92
2022/11/22 02:16:49;;;;;;;;;2.00;0.50;;;;;2.90;100.00;98441.84;6154284;23;44683;-92
2022/11/22 02:19:27;;;;;;;;;1.00;1.00;;;;;3.86;100.00;98580.66;6163033;23;45480;-92
2022/11/22 02:21:59;;;;;;;;;1.00;1.00;;;;;4.32;100.00;98644.88;6162321;23;48309;-92
2022/11/22 02:24:35;;;;;;;;;1.00;1.00;;;;;3.97;100.00;98586.47;6169169;23;44603;-92
2022/11/22 02:27:01;;;;;;;;;1.00;1.00;;;;;4.58;100.00;98677.38;6171641;23;45330;-93
2022/11/22 02:29:29;;;;;;;;;1.00;1.00;;;;;3.95;100.00;98577.81;6183112;23;44821;-92
2022/11/22 02:31:54;;;;;;;;;1.00;1.00;;;;;3.32;100.00;98469.59;6171148;23;47046;-92
2022/11/22 02:34:20;;;;;;;;;1.75;1.50;;;;;3.62;100.00;98507.19;6180645;22;44657;-91
2022/11/22 02:36:54;;;;;;;;;3.00;1.50;;;;;3.64;100.00;98502.75;6217386;22;45338;-92
2022/11/22 02:39:29;;;;;;;;;0.25;0.25;;;;;4.07;100.00;98568.81;6191266;22;45307;-91
2022/11/22 02:41:56;;;;;;;;;2.00;1.00;;;;;4.72;100.00;98695.31;6191966;22;47137;-92
2022/11/22 02:44:22;;;;;;;;;0.00;0.00;;;;;2.74;100.00;98370.03;6218088;22;45231;-90
2022/11/22 02:46:52;;;;;;;;;1.00;1.00;;;;;4.74;100.00;98699.63;6192904;22;45407;-92
2022/11/22 02:49:20;;;;;;;;;1.75;1.00;;;;;4.09;100.00;98611.47;6196175;22;45102;-92
2022/11/22 02:51:45;;;;;;;;;1.00;1.00;;;;;3.98;100.00;98575.13;6191015;22;46303;-92
2022/11/22 02:54:11;;;;;;;;;1.75;1.00;;;;;3.27;100.00;98446.22;6192856;22;45724;-92
2022/11/22 02:56:46;;;;;;;;;1.00;1.00;;;;;4.35;100.00;98602.94;6206626;22;45212;-92
2022/11/22 02:59:11;;;;;;;;;0.75;0.00;;;;;4.18;100.00;98571.16;6204493;22;45199;-92
2022/11/22 03:01:37;;;;;;;;;0.00;0.00;;;;;3.82;100.00;98518.88;6199247;22;46682;-92
2022/11/22 03:04:03;;;;;;;;;0.00;0.00;;;;;3.03;100.00;98380.63;6215796;22;45210;-90
2022/11/22 03:06:28;;;;;;;;;1.50;1.00;;;;;2.95;100.00;98372.13;6192282;22;45201;-90
2022/11/22 03:08:54;;;;;;;;;1.00;0.00;;;;;4.37;100.00;98632.56;6216720;22;45499;-92
2022/11/22 03:11:20;;;;;;;;;0.25;0.00;;;;;3.41;100.00;98432.81;6198009;22;47574;-93
2022/11/22 03:13:46;;;;;;;;;0.25;0.25;;;;;2.62;100.00;98312.03;6224303;22;45096;-92
2022/11/22 03:16:12;;;;;;;;;0.75;0.75;;;;;3.24;100.00;98401.88;6190895;22;45126;-93
2022/11/22 03:18:37;;;;;;;;;2.00;0.50;;;;;3.10;100.00;98376.13;6190869;22;45177;-92
2022/11/22 03:21:07;;;;;;;;;1.25;1.00;;;;;4.38;100.00;98579.31;6217292;22;47306;-91
2022/11/22 03:23:34;;;;;;;;;0.75;0.75;;;;;3.04;100.00;98358.00;6222734;22;45306;-92
2022/11/22 03:26:07;;;;;;;;;1.00;1.00;;;;;3.59;100.00;98441.94;6205064;22;45423;-92
2022/11/22 03:28:33;;;;;;;;;0.00;0.00;;;;;3.38;100.00;98418.06;6199414;22;45398;-93
2022/11/22 03:30:58;;;;;;;;;1.50;1.50;;;;;4.68;100.00;98616.03;6221446;22;46886;-91
2022/11/22 03:33:27;;;;;;;;;0.00;0.00;;;;;4.17;100.00;98535.44;6218383;22;45296;-92
2022/11/22 03:35:59;;;;;;;;;0.50;0.50;;;;;4.95;100.00;98673.75;6196991;22;45136;-92
2022/11/22 03:38:25;;;;;;;;;1.00;1.00;;;;;4.57;100.00;98584.06;6202309;22;45186;-92
2022/11/22 03:40:50;;;;;;;;;1.00;0.50;;;;;4.35;100.00;98568.94;6220926;22;45356;-91
2022/11/22 03:43:18;;;;;;;;;1.75;0.00;;;;;3.82;100.00;98464.00;6196155;22;45232;-91
2022/11/22 03:45:50;;;;;;;;;1.00;0.00;;;;;5.02;100.00;98659.59;6221701;22;45325;-92
2022/11/22 03:48:18;;;;;;;;;1.00;1.00;;;;;4.31;100.00;98538.50;6196696;22;45191;-92
2022/11/22 03:50:46;;;;;;;;;0.00;0.00;;;;;3.98;100.00;98480.13;6202044;22;46605;-92
2022/11/22 03:53:11;;;;;;;;;2.00;1.00;;;;;3.99;100.00;98482.69;6199056;22;45232;-92
2022/11/22 03:55:40;;;;;;;;;1.00;1.00;;;;;4.01;100.00;98470.47;6196074;22;45393;-92
2022/11/22 03:58:08;;;;;;;;;1.75;1.75;;;;;3.58;100.00;98405.41;6205223;22;45185;-92
2022/11/22 04:00:35;;;;;;;;;1.75;0.75;;;;;3.01;100.00;98303.28;6202837;22;46643;-92
2022/11/22 04:03:04;;;;;;;;;2.00;1.75;;;;;4.62;100.00;98587.41;6217271;22;45208;-91
2022/11/22 04:05:31;;;;;;;;;1.00;1.00;;;;;4.50;100.00;98535.44;6180696;22;44865;-92
2022/11/22 04:07:59;;;;;;;;;0.00;0.00;;;;;4.85;100.00;98583.31;6207279;22;45169;-90
2022/11/22 04:10:25;;;;;;;;;0.00;0.00;;;;;3.52;100.00;98356.78;6192873;22;47538;-92
2022/11/22 04:12:58;;;;;;;;;0.00;0.00;;;;;4.14;100.00;98459.69;6196100;22;45405;-91
2022/11/22 04:15:33;;;;;;;;;1.00;1.00;;;;;3.58;100.00;98364.44;6195973;22;45247;-92
2022/11/22 04:17:59;;;;;;;;;2.25;1.00;;;;;4.26;100.00;98488.09;6197735;22;45141;-92
2022/11/22 04:23:19;;;;;;;;;1.00;1.00;;;;;4.33;100.00;98476.56;6227527;22;45202;-93
2022/11/22 04:25:47;;;;;;;;;0.00;0.00;;;;;5.01;100.00;98589.84;6203814;22;45317;-91
2022/11/22 04:28:14;;;;;;;;;0.00;0.00;;;;;5.40;100.00;98643.72;6200929;22;45399;-91
2022/11/22 04:33:28;;;;;;;;;0.50;0.50;;;;;4.52;100.00;98486.50;6219468;22;45164;-91
2022/11/22 04:35:54;;;;;;;;;0.00;0.00;;;;;5.49;100.00;98638.19;6190464;22;45204;-93
2022/11/22 04:38:29;;;;;;;;;2.00;0.00;;;;;4.03;100.00;98379.78;6192757;22;45525;-91
2022/11/22 04:40:55;;;;;;;;;0.00;0.00;;;;;5.53;100.00;98618.84;6195741;22;47749;-94
2022/11/22 04:46:14;;;;;;;;;2.00;0.00;;;;;4.63;100.00;98453.03;6227990;22;45239;-93
2022/11/22 04:48:40;;;;;;;;;0.75;0.75;;;;;5.58;100.00;98622.19;6203996;22;45448;-92
2022/11/22 04:53:59;;;;;;;;;0.00;0.00;;;;;3.93;100.00;98346.94;6232488;22;45095;-91
2022/11/22 04:56:25;;;;;;;;;3.00;1.00;;;;;3.99;100.00;98345.91;6235662;22;44844;-93
2022/11/22 04:58:51;;;;;;;;;1.00;0.00;;;;;4.58;100.00;98455.78;6202771;22;45591;-92
2022/11/22 05:01:22;;;;;;;;;1.00;1.00;;;;;5.27;100.00;98562.84;6207420;22;47245;-93
2022/11/22 05:03:52;;;;;;;;;2.00;0.75;;;;;5.39;100.00;98590.47;6226966;22;44759;-93
2022/11/22 05:06:17;;;;;;;;;1.00;1.00;;;;;4.66;100.00;98447.75;6192081;22;45318;-92
2022/11/22 05:08:43;;;;;;;;;0.50;0.50;;;;;3.96;100.00;98346.84;6189690;22;45244;-92
2022/11/22 05:11:11;;;;;;;;;0.00;0.00;;;;;5.74;100.00;98633.06;6198993;22;46648;-93
2022/11/22 05:13:39;;;;;;;;;2.00;1.00;;;;;5.38;100.00;98562.53;6203961;22;45195;-92
2022/11/22 05:16:08;;;;;;;;;2.50;0.00;;;;;4.63;100.00;98429.47;6204373;22;45283;-92
2022/11/22 05:21:53;;;;;;;;;0.25;0.25;;;;;4.77;100.00;98448.25;6210753;22;45187;-91
2022/11/22 05:24:19;;;;;;;;;1.00;1.00;;;;;4.76;100.00;98448.31;6194273;22;45368;-92
2022/11/22 05:26:45;;;;;;;;;0.00;0.00;;;;;5.21;100.00;98515.03;6195269;22;45206;-91
2022/11/22 05:29:10;;;;;;;;;0.50;0.00;;;;;4.81;100.00;98441.16;6217743;22;45528;-92
2022/11/22 05:31:40;;;;;;;;;1.00;1.00;;;;;5.77;100.00;98617.25;6187172;22;47798;-93
2022/11/22 05:34:06;;;;;;;;;0.25;0.25;;;;;5.52;100.00;98575.19;6190328;22;45237;-92
2022/11/22 05:36:34;;;;;;;;;1.00;1.00;;;;;5.23;100.00;98502.75;6194243;22;45208;-91
2022/11/22 05:39:05;;;;;;;;;2.25;1.25;;;;;4.41;100.00;98363.88;6196165;22;45198;-92
2022/11/22 05:41:36;;;;;;;;;0.25;0.25;;;;;4.84;100.00;98424.50;6194638;22;46379;-93
2022/11/22 05:44:31;;;;;;;;;1.00;0.00;;;;;5.59;100.00;98554.91;6228127;22;45238;-93
2022/11/22 05:47:08;;;;;;;;;0.00;0.00;;;;;5.40;100.00;98528.41;6184339;22;45385;-93
2022/11/22 05:49:53;;;;;;;;;0.50;0.00;;;;;5.13;100.00;98482.09;6196659;22;45557;-92
2022/11/22 05:52:18;;;;;;;;;0.75;0.50;;;;;3.98;100.00;98308.47;6192946;22;46546;-93
2022/11/22 05:54:51;;;;;;;;;0.00;0.00;;;;;5.29;100.00;98513.03;6193897;22;45216;-93
2022/11/22 05:57:34;;;;;;;;;0.00;0.00;;;;;5.69;100.00;98587.78;6193710;22;45341;-92
2022/11/22 06:00:18;;;;;;;;;2.00;1.00;;;;;5.18;100.00;98507.25;6221621;22;45389;-93
2022/11/22 06:03:04;;;;;;;;;0.00;0.00;;;;;4.70;100.00;98422.31;6198309;22;45629;-90
2022/11/22 06:05:30;;;;;;;;;0.00;0.00;;;;;6.02;100.00;98637.47;6189857;22;45466;-91
2022/11/22 06:08:00;;;;;;;;;1.00;1.00;;;;;4.94;100.00;98468.69;6192094;22;45409;-92
2022/11/22 06:10:35;;;;;;;;;0.00;0.00;;;;;4.37;100.00;98349.16;6174627;22;45189;-92
2022/11/22 06:13:03;;;;;;;;;0.00;0.00;;;;;6.03;100.00;98644.44;6202832;22;46959;-92
2022/11/22 06:15:31;;;;;;;;;0.00;0.00;;;;;5.41;100.00;98520.50;6196221;22;45100;-91
2022/11/22 06:18:06;;;;;;;;;0.00;0.00;;;;;4.79;100.00;98433.34;6199765;22;45303;-92
2022/11/22 06:23:46;;;;;;;;;0.00;0.00;;;;;4.86;100.00;98407.00;6214187;22;46337;-92
2022/11/22 06:26:19;;;;;;;;;1.25;0.25;;;;;4.90;100.00;98442.66;6204182;22;45286;-92
2022/11/22 06:28:55;;;;;;;;;1.00;1.00;;;;;6.07;100.00;98625.03;6224258;22;45321;-92
2022/11/22 06:31:26;;;;;;;;;1.00;1.00;;;;;4.49;100.00;98356.63;6189670;22;45353;-93
2022/11/22 06:33:55;;;;;;;;;0.00;0.00;;;;;4.60;100.00;98385.97;6189925;22;48332;-91
2022/11/22 06:36:32;;;;;;;;;0.00;0.00;;;;;5.75;100.00;98598.06;6193909;22;45440;-90
2022/11/22 06:39:06;;;;;;;;;0.50;0.50;;;;;5.19;100.00;98488.03;6221995;22;45350;-91
2022/11/22 06:41:35;;;;;;;;;0.25;0.25;;;;;4.44;100.00;98353.31;6190287;22;45428;-92
2022/11/22 06:44:05;;;;;;;;;1.75;1.00;;;;;5.20;100.00;98474.88;6192819;22;47485;-94
2022/11/22 06:46:41;;;;;;;;;;;;;;;;;;;;;
2022/11/22 06:55:48;;;;;;;;;2.00;1.00;;;;;4.34;100.00;98330.94;6102618;23;45201;-93
2022/11/22 06:58:22;;;;;;;;;0.00;0.00;;;;;5.48;100.00;98529.03;6100776;23;44738;-93
2022/11/22 07:00:57;;;;;;;;;;;;;;;;;;;;;
2022/11/22 07:03:35;;;;;;;;;0.00;0.00;;;;;5.31;100.00;98500.75;6096307;23;70895;-92
2022/11/22 07:06:05;;;;;;;;;1.00;1.00;;;;;5.66;100.00;98546.81;6079408;23;45463;-92
2022/11/22 07:08:37;;;;;;;;;0.00;0.00;;;;;4.91;100.00;98428.66;6104814;23;45303;-92
2022/11/22 07:11:20;;;;;;;;;0.75;0.75;;;;;6.31;100.00;98638.28;6104347;23;45238;-91
2022/11/22 07:13:48;;;;;;;;;1.00;1.00;;;;;5.64;100.00;98553.00;6105445;23;45224;-91
2022/11/22 07:16:54;;;;;;;;;1.75;1.75;;;;;6.34;100.00;98674.91;6077617;23;46627;-91
2022/11/22 07:19:23;;;;;;;;;1.00;1.00;;;;;4.63;100.00;98371.91;6077050;23;45255;-91
2022/11/22 07:21:49;;;;;;;;;1.75;0.00;;;;;5.37;100.00;98507.56;6084523;23;45317;-92
2022/11/22 07:24:15;;;;;;;;;0.75;0.75;;;;;6.07;100.00;98625.03;6109941;23;45407;-92
2022/11/22 07:26:40;;;;;;;;;2.75;0.75;;;;;4.95;100.00;98427.66;6085018;23;47186;-92
2022/11/22 07:29:09;;;;;;;;;0.25;0.25;;;;;5.63;100.00;98532.91;6150736;22;44694;-91
2022/11/22 07:31:35;;;;;;;;;1.00;0.75;;;;;4.90;100.00;98408.63;6211862;22;45438;-92
2022/11/22 07:34:00;;;;;;;;;1.00;0.00;;;;;6.06;100.00;98620.72;6198919;22;45512;-91
2022/11/22 07:36:28;;;;;;;;;1.00;1.00;;;;;4.79;100.00;98425.50;6198370;22;45368;-91
2022/11/22 07:38:53;;;;;;;;;0.00;0.00;;;;;5.74;100.00;98553.53;6197758;22;45282;-92
2022/11/22 07:41:21;;;;;;;;;1.00;0.00;;;;;6.08;100.00;98632.03;6224551;22;45251;-93
2022/11/22 07:43:56;;;;;;;;;0.75;0.75;;;;;5.48;100.00;98539.50;6196959;22;45108;-92
2022/11/22 07:46:29;;;;;;;;;0.00;0.00;;;;;4.96;100.00;98437.22;6193350;22;47267;-92
2022/11/22 07:49:15;;;;;;;;;0.00;0.00;;;;;6.51;100.00;98692.72;6192415;22;45267;-92
2022/11/22 07:51:45;;;;;;;;;0.00;0.00;;;;;5.37;100.00;98503.16;6182664;22;45341;-94
2022/11/22 07:54:12;;;;;;;;;0.75;0.75;;;;;5.48;100.00;98516.78;6200552;22;45517;-94
2022/11/22 07:56:37;;;;;;;;;0.00;0.00;;;;;4.54;100.00;98377.44;6223875;22;46930;-91
2022/11/22 07:59:10;;;;;;;;;0.50;0.50;;;;;5.68;100.00;98559.88;6196583;22;45530;-91
2022/11/22 08:05:01;;;;;;;;;0.00;0.00;;;;;4.95;100.00;98438.13;6224238;22;45181;-90
2022/11/22 08:10:48;;;;;;;;;0.00;0.00;;;;;6.14;100.00;98637.06;6227429;22;45205;-90
2022/11/22 08:13:14;;;;;;;;;0.00;0.00;;;;;5.97;100.00;98613.16;6167713;22;45315;-90
2022/11/22 08:15:42;;;;;;;;;0.50;0.00;;;;;6.55;100.00;98710.09;6188957;22;45541;-88
2022/11/22 08:18:07;;;;;;;;;0.50;0.50;;;;;5.92;100.00;98594.03;6216692;22;46133;-90
2022/11/22 08:20:43;;;;;;;;;1.00;1.00;;;;;6.27;100.00;98644.53;6191610;22;45248;-93
2022/11/22 11:44:40;;;;;;;;;2.00;1.50;;;;;15.88;74.13;98598.63;6219310;22;45473;-91
2022/11/22 11:47:46;;;;;;;;;4.00;2.00;;;;;15.72;76.95;98599.72;6220675;22;45199;-93
2022/11/22 12:24:15;;;;;;;;;;;;;;;;;;;;;
2022/11/22 12:57:36;;;;;;;;;1.00;0.00;;;;;14.61;80.00;98591.50;6224166;22;46024;-92
2022/11/22 13:00:35;;;;;;;;;;;;;;;;;;;;;
2022/11/22 13:03:28;;;;;;;;;3.75;1.50;;;;;14.32;80.01;98703.22;6220995;22;67998;-91
2022/11/22 13:05:59;;;;;;;;;1.75;0.00;;;;;14.10;78.42;98709.06;6192634;22;45373;-91
2022/11/22 13:08:52;;;;;;;;;0.00;0.00;;;;;14.05;79.32;98756.34;6199869;22;45451;-91
2022/11/22 13:11:28;;;;;;;;;0.25;0.25;;;;;13.43;81.28;98712.34;6224705;22;45176;-91
2022/11/22 13:14:23;;;;;;;;;3.25;0.25;;;;;13.61;80.55;98767.91;6223761;22;45426;-92
2022/11/22 13:16:58;;;;;;;;;1.75;0.75;;;;;12.87;80.31;98669.69;6199344;22;45489;-91
2022/11/22 13:19:28;;;;;;;;;0.50;0.25;;;;;12.98;81.27;98728.25;6195844;22;47280;-91
2022/11/22 13:22:11;;;;;;;;;2.50;1.00;;;;;13.49;81.14;98826.09;6192546;22;45369;-91
2022/11/22 13:25:14;;;;;;;;;1.00;1.00;;;;;13.31;82.21;98828.00;6197382;22;45279;-91
2022/11/22 13:27:49;;;;;;;;;0.50;0.50;;;;;13.14;81.97;98825.47;6198823;22;45470;-92
2022/11/22 13:30:38;;;;;;;;;0.25;0.25;;;;;12.96;82.66;98827.41;6204335;22;47616;-91
2022/11/22 13:33:24;;;;;;;;;2.00;0.00;;;;;12.08;82.48;98742.22;6193131;22;45452;-92
2022/11/22 13:36:10;;;;;;;;;1.00;1.00;;;;;12.14;83.11;98748.97;6192881;22;45279;-92
2022/11/22 13:38:38;;;;;;;;;0.00;0.00;;;;;10.52;82.60;98517.75;6197612;22;45175;-92
2022/11/22 13:41:24;;;;;;;;;1.50;1.00;;;;;11.23;82.40;98666.50;6184944;23;47697;-91
2022/11/22 13:43:55;;;;;;;;;1.75;1.75;;;;;11.10;83.31;98666.28;6191756;23;45299;-90
2022/11/22 13:46:50;;;;;;;;;3.00;1.00;;;;;12.06;84.39;98834.13;6163222;23;45352;-91
2022/11/22 13:49:30;;;;;;;;;1.50;1.00;;;;;11.93;84.46;98827.78;6144401;23;45179;-92
2022/11/22 13:59:23;;;;;;;;;0.00;0.00;;;;;10.77;83.32;98694.38;6166709;23;45240;-91
2022/11/22 14:01:49;;;;;;;;;1.50;0.00;;;;;11.11;84.47;98761.38;6015321;23;45483;-91
2022/11/22 14:04:55;;;;;;;;;1.00;0.00;;;;;11.56;84.62;98844.59;6018516;23;46674;-92
2022/11/22 14:10:47;;;;;;;;;1.75;0.50;;;;;11.10;84.67;98762.34;6045845;23;45409;-90
2022/11/22 14:13:46;;;;;;;;;2.25;1.00;;;;;11.46;85.06;98826.66;6015537;23;45491;-91
2022/11/22 14:16:40;;;;;;;;;2.00;1.00;;;;;10.28;85.23;98647.47;6020190;23;46756;-90
2022/11/22 14:19:30;;;;;;;;;1.00;1.00;;;;;11.06;84.47;98767.84;6021070;23;45902;-92
2022/11/22 14:22:51;;;;;;;;;1.00;1.00;;;;;11.18;84.97;98813.03;6046032;23;45340;-92
2022/11/22 14:25:46;;;;;;;;;3.25;1.00;;;;;11.32;85.12;98830.00;5941005;24;44861;-92
2022/11/22 14:28:48;;;;;;;;;2.00;1.00;;;;;10.13;85.16;98651.72;5936798;24;45628;-92
2022/11/22 14:31:28;;;;;;;;;1.00;1.00;;;;;11.23;85.79;98841.03;5934541;24;45318;-91
2022/11/22 14:34:25;;;;;;;;;0.75;0.50;;;;;11.18;85.42;98834.19;5915413;24;44650;-90
2022/11/22 14:37:09;;;;;;;;;0.00;0.00;;;;;11.15;86.36;98834.34;5908900;24;45502;-92
2022/11/22 14:40:07;;;;;;;;;0.50;0.50;;;;;10.62;85.00;98769.97;6021400;23;45324;-93
2022/11/22 14:49:48;;;;;;;;;0.50;0.50;;;;;10.97;85.53;98837.91;6047677;23;45448;-92
2022/11/22 14:52:23;;;;;;;;;0.00;0.00;;;;;10.49;86.11;98761.81;6018845;23;47009;-93
2022/11/22 14:55:24;;;;;;;;;0.75;0.75;;;;;10.88;83.38;98844.47;6026965;23;44612;-93
2022/11/22 14:58:03;;;;;;;;;0.00;0.00;;;;;9.18;84.80;98574.44;6052194;23;45251;-92
2022/11/22 15:01:13;;;;;;;;;0.25;0.00;;;;;8.85;84.59;98507.41;6008395;23;44862;-91
2022/11/22 15:11:33;;;;;;;;;1.00;1.00;;;;;9.99;85.55;98708.72;6017463;23;44674;-93
2022/11/22 15:14:30;;;;;;;;;1.00;1.00;;;;;10.72;86.27;98833.81;6002830;23;44888;-93
2022/11/22 15:17:24;;;;;;;;;0.00;0.00;;;;;10.71;86.07;98834.72;6013085;23;45402;-92
2022/11/22 15:20:05;;;;;;;;;;;;;;;;;;;;;
2022/11/22 15:22:39;;;;;;;;;0.00;0.00;;;;;9.31;85.56;98611.63;6011565;23;67527;-92
2022/11/22 15:25:19;;;;;;;;;0.00;0.00;;;;;9.48;85.30;98639.88;6000010;23;45597;-93
2022/11/22 15:31:20;;;;;;;;;1.00;1.00;;;;;9.89;86.05;98703.88;6022559;23;45159;-93
2022/11/22 15:33:53;;;;;;;;;0.00;0.00;;;;;10.64;86.32;98850.03;6023615;23;45386;-93
2022/11/22 15:37:03;;;;;;;;;1.00;1.00;;;;;10.61;86.85;98833.47;6016343;23;45365;-93
2022/11/22 15:39:34;;;;;;;;;2.50;1.00;;;;;10.14;86.49;98788.06;6046450;23;46994;-93
2022/11/22 15:42:22;;;;;;;;;1.00;1.00;;;;;9.52;86.91;98695.03;6138435;23;45921;-94
2022/11/22 15:45:11;;;;;;;;;2.00;1.00;;;;;8.93;86.69;98596.63;6138789;23;45237;-94
2022/11/22 15:47:48;;;;;;;;;1.00;1.00;;;;;9.08;86.66;98626.72;6138055;23;45140;-94
2022/11/22 15:51:00;;;;;;;;;2.25;1.00;;;;;9.35;86.58;98673.81;6140242;23;48098;-94
2022/11/22 15:53:34;;;;;;;;;4.00;1.75;;;;;9.66;86.26;98749.78;6135929;23;45202;-92
2022/11/22 15:56:40;;;;;;;;;1.00;1.00;;;;;9.60;87.03;98744.78;6163044;23;45126;-93
2022/11/22 15:59:33;;;;;;;;;;;;;;;;;;;;;
2022/11/22 16:05:43;;;;;;;;;0.00;0.00;;;;;9.81;86.95;98797.50;6150987;23;45284;-93
2022/11/22 16:08:24;;;;;;;;;1.00;1.00;;;;;8.95;86.69;98662.44;6123889;23;45245;-92
2022/11/22 16:14:48;;;;;;;;;5.25;2.25;;;;;10.16;87.33;98871.59;6165218;23;45177;-93
2022/11/22 16:17:37;;;;;;;;;1.50;1.00;;;;;8.76;86.79;98641.28;6164899;23;45098;-93
2022/11/22 16:20:38;;;;;;;;;1.00;1.00;;;;;10.13;87.57;98876.09;6139032;23;45212;-93
2022/11/22 16:26:28;;;;;;;;;1.75;1.75;;;;;10.08;87.04;98888.66;6167870;23;46652;-93
2022/11/22 16:29:37;;;;;;;;;1.75;1.00;;;;;10.07;87.44;98879.03;6143980;23;45200;-92
2022/11/22 16:32:32;;;;;;;;;2.00;1.00;;;;;8.22;87.13;98594.38;6138317;23;44834;-93
2022/11/22 16:38:43;;;;;;;;;3.00;1.00;;;;;10.03;87.31;98893.28;6178145;23;44896;-93
2022/11/22 16:42:00;;;;;;;;;1.50;1.00;;;;;8.85;87.24;98715.53;6171697;23;44870;-94
2022/11/22 16:44:50;;;;;;;;;;;;;;;;;;;;;
2022/11/22 16:47:29;;;;;;;;;1.75;1.00;;;;;8.58;87.52;98654.34;5978197;23;69671;-92
2022/11/22 16:50:14;;;;;;;;;1.00;1.00;;;;;10.01;87.12;98897.78;5977369;23;46190;-93
2022/11/22 16:52:44;;;;;;;;;4.50;1.00;;;;;10.00;86.98;98921.59;5968849;23;44971;-93
2022/11/22 16:55:49;;;;;;;;;3.00;1.00;;;;;10.00;87.08;98890.78;5996439;23;44804;-92
2022/11/22 16:58:50;;;;;;;;;3.75;1.00;;;;;8.82;86.80;98699.84;5940846;23;44924;-92
2022/11/22 17:01:34;;;;;;;;;1.00;1.00;;;;;9.99;87.54;98893.47;5978574;23;45048;-93
2022/11/22 17:04:27;;;;;;;;;4.25;3.00;;;;;9.55;87.36;98839.09;5980389;23;44789;-92
2022/11/22 17:07:08;;;;;;;;;0.75;0.75;;;;;8.76;87.31;98710.66;5996392;23;44571;-92
2022/11/22 17:09:51;;;;;;;;;4.00;2.00;;;;;9.97;86.95;98919.94;5963278;23;44876;-93
2022/11/22 17:12:40;;;;;;;;;4.25;3.00;;;;;9.17;86.75;98789.72;5974487;23;46700;-93
2022/11/22 17:15:29;;;;;;;;;0.50;0.50;;;;;8.73;87.18;98716.03;5928121;23;44756;-92
2022/11/22 17:18:45;;;;;;;;;3.00;2.75;;;;;9.97;87.47;98922.56;5963874;23;45362;-92
2022/11/22 17:22:45;;;;;;;;;;;;;;;;;;;;;
2022/11/22 17:24:50;;;;;;;;;2.25;1.50;;;;;9.60;87.67;98877.53;5881336;24;45160;-92
2022/11/22 17:27:19;;;;;;;;;3.50;2.00;;;;;8.80;87.24;98733.28;5883662;24;45236;-92
2022/11/22 17:33:00;;;;;;;;;1.00;1.00;;;;;9.98;87.17;98936.66;5902842;24;45227;-91
2022/11/22 17:35:28;;;;;;;;;2.00;0.75;;;;;8.85;86.41;98760.31;5905043;24;45389;-92
2022/11/22 17:37:55;;;;;;;;;2.75;0.00;;;;;9.96;87.27;98927.00;5887294;24;44708;-90
2022/11/22 17:40:29;;;;;;;;;1.00;1.00;;;;;8.07;86.68;98624.78;5894601;23;44982;-91
2022/11/22 17:43:04;;;;;;;;;2.00;2.00;;;;;7.99;86.95;98619.00;5917947;23;44800;-92
2022/11/22 17:45:42;;;;;;;;;0.50;0.50;;;;;8.78;87.14;98748.31;5903596;24;46725;-90
2022/11/22 17:48:12;;;;;;;;;1.00;1.00;;;;;9.56;88.07;98885.66;5901621;24;45160;-92
2022/11/22 17:50:45;;;;;;;;;0.50;0.50;;;;;9.92;87.39;98956.25;5884383;24;45408;-93
2022/11/22 17:53:26;;;;;;;;;;;;;;;;;;;;;
2022/11/22 17:55:52;;;;;;;;;1.25;1.25;;;;;9.91;87.78;98967.72;5904955;24;74451;-92
2022/11/22 17:58:23;;;;;;;;;2.00;1.00;;;;;9.50;88.23;98901.72;5907462;24;45189;-91
2022/11/22 18:01:07;;;;;;;;;2.00;0.25;;;;;8.53;87.58;98749.31;6006879;23;45282;-91
2022/11/22 18:07:11;;;;;;;;;4.00;3.00;;;;;8.91;87.07;98814.50;5981798;23;45741;-92
2022/11/22 18:09:55;;;;;;;;;2.00;2.00;;;;;8.87;87.53;98812.94;5970819;23;45804;-92
2022/11/22 18:12:41;;;;;;;;;3.75;2.00;;;;;7.95;87.43;98662.13;5968893;23;45245;-93
2022/11/22 18:15:10;;;;;;;;;2.25;2.00;;;;;8.58;87.40;98769.31;5986500;23;45487;-93
2022/11/22 18:17:44;;;;;;;;;2.00;2.00;;;;;9.87;87.77;98979.31;5994503;23;46804;-91
2022/11/22 18:20:10;;;;;;;;;2.00;2.00;;;;;9.66;86.67;98925.69;5977886;23;44867;-93
2022/11/22 18:26:05;;;;;;;;;4.00;2.00;;;;;8.01;86.43;98689.03;6021040;23;45310;-89